Time;durP1;ratioP1;P1;durP2;ratioP2;P2;SDS_P1;SDS_P2;PMS_P1;PMS_P2;Temp;Humidity;BMP_temperature;BMP_pressure;BME280_temperature;BME280_humidity;BME280_pressure;Samples;Min_cycle;Max_cycle;Signal;HPM_P1;HPM_P2
2022/02/20 00:01:45;;;;;;;5.47;2.95;;;4.30;99.90;;;;;;5074312;28;20032;-69
2022/02/20 00:04:11;;;;;;;9.65;2.88;;;4.30;99.90;;;;;;5073719;28;20313;-69
2022/02/20 00:06:37;;;;;;;4.60;2.63;;;4.40;99.90;;;;;;5078348;28;20061;-70
2022/02/20 00:09:03;;;;;;;8.20;2.95;;;4.40;99.90;;;;;;5074511;28;20066;-71
2022/02/20 00:11:29;;;;;;;9.45;4.22;;;4.40;99.90;;;;;;5064086;28;20474;-70
2022/02/20 00:13:55;;;;;;;9.18;3.05;;;4.40;99.90;;;;;;5067891;28;20056;-69
2022/02/20 00:16:22;;;;;;;4.82;2.47;;;4.40;99.90;;;;;;5060355;28;20116;-69
2022/02/20 00:18:49;;;;;;;7.75;2.70;;;4.40;99.90;;;;;;5057790;28;20028;-70
2022/02/20 00:21:15;;;;;;;10.80;2.83;;;4.30;99.90;;;;;;5075012;28;20112;-69
2022/02/20 00:23:40;;;;;;;8.95;3.00;;;4.30;99.90;;;;;;5072284;28;20413;-69
2022/02/20 00:26:06;;;;;;;5.05;2.67;;;4.30;99.90;;;;;;5068238;28;20020;-70
2022/02/20 00:28:32;;;;;;;5.47;2.95;;;4.30;99.90;;;;;;5075233;28;20017;-69
2022/02/20 00:30:58;;;;;;;8.27;3.35;;;4.20;99.90;;;;;;5076062;28;20024;-70
2022/02/20 00:33:24;;;;;;;7.28;2.63;;;4.30;99.90;;;;;;5070116;28;20521;-69
2022/02/20 00:35:51;;;;;;;5.97;2.83;;;4.30;99.90;;;;;;5072520;28;20039;-70
2022/02/20 00:38:17;;;;;;;6.85;2.45;;;4.20;99.90;;;;;;5062403;28;20039;-69
2022/02/20 00:40:42;;;;;;;3.97;2.33;;;4.30;99.90;;;;;;5072702;28;20025;-69
2022/02/20 00:43:08;;;;;;;8.10;2.45;;;4.30;99.90;;;;;;5071177;28;20056;-69
2022/02/20 00:45:35;;;;;;;5.18;2.25;;;4.30;99.90;;;;;;5070241;28;20020;-71
2022/02/20 00:48:02;;;;;;;6.03;2.22;;;4.30;99.90;;;;;;5083585;28;20070;-72
2022/02/20 00:50:28;;;;;;;4.55;2.25;;;4.30;99.90;;;;;;5078997;28;20481;-69
2022/02/20 00:52:54;;;;;;;4.43;2.53;;;4.20;99.90;;;;;;5074283;28;20036;-68
2022/02/20 00:55:20;;;;;;;3.85;1.98;;;4.20;99.90;;;;;;5076444;28;20029;-69
2022/02/20 00:57:46;;;;;;;4.55;2.10;;;4.20;99.90;;;;;;5071640;28;20111;-69
2022/02/20 01:00:15;;;;;;;6.10;1.90;;;4.10;99.90;;;;;;5074109;28;20028;-69
2022/02/20 01:02:42;;;;;;;4.75;2.10;;;4.10;99.90;;;;;;5069200;28;20066;-71
2022/02/20 01:05:09;;;;;;;3.33;1.65;;;4.10;99.90;;;;;;5071526;28;20028;-72
2022/02/20 01:07:35;;;;;;;2.63;1.67;;;4.10;99.90;;;;;;5071608;28;20030;-72
2022/02/20 01:10:01;;;;;;;3.35;1.70;;;4.00;99.90;;;;;;5070991;28;20033;-70
2022/02/20 01:12:27;;;;;;;2.05;1.65;;;4.10;99.90;;;;;;5072092;28;20032;-73
2022/02/20 01:14:52;;;;;;;2.50;1.60;;;4.20;99.90;;;;;;5070789;28;20031;-69
2022/02/20 01:17:18;;;;;;;3.80;1.60;;;4.20;99.90;;;;;;5068282;28;20108;-69
2022/02/20 01:19:44;;;;;;;3.97;2.05;;;4.10;99.90;;;;;;5072872;28;20031;-70
2022/02/20 01:22:10;;;;;;;4.00;2.28;;;4.10;99.90;;;;;;5072919;28;20052;-69
2022/02/20 01:24:36;;;;;;;3.22;2.05;;;4.10;99.90;;;;;;5074045;28;20033;-68
2022/02/20 01:27:01;;;;;;;4.70;2.20;;;4.10;99.90;;;;;;5078592;28;20028;-69
2022/02/20 01:29:27;;;;;;;5.90;2.40;;;4.10;99.90;;;;;;5076451;28;20627;-72
2022/02/20 01:31:53;;;;;;;3.85;2.20;;;4.00;99.90;;;;;;5070955;28;20035;-70
2022/02/20 01:34:20;;;;;;;4.85;2.17;;;4.00;99.90;;;;;;5078418;28;20028;-69
2022/02/20 01:36:46;;;;;;;6.78;2.33;;;4.00;99.90;;;;;;5070405;28;20509;-71
2022/02/20 01:39:12;;;;;;;3.92;1.83;;;4.00;99.90;;;;;;5073291;28;20036;-69
2022/02/20 01:41:38;;;;;;;2.58;1.65;;;4.00;99.90;;;;;;5073973;28;20112;-69
2022/02/20 01:44:06;;;;;;;2.20;1.50;;;3.90;99.90;;;;;;5060009;28;20049;-69
2022/02/20 01:46:32;;;;;;;2.95;1.60;;;3.90;99.90;;;;;;5067543;28;20037;-69
2022/02/20 01:48:58;;;;;;;6.53;3.40;;;4.00;99.90;;;;;;5070753;28;20028;-69
2022/02/20 01:51:24;;;;;;;3.67;1.92;;;4.00;99.90;;;;;;5067609;28;20029;-69
2022/02/20 01:53:51;;;;;;;2.95;1.80;;;3.90;99.90;;;;;;5075996;28;20422;-70
2022/02/20 01:56:17;;;;;;;4.15;1.70;;;3.90;99.90;;;;;;5075199;28;20084;-69
2022/02/20 01:58:43;;;;;;;6.45;1.98;;;3.90;99.90;;;;;;5070339;28;20020;-69
2022/02/20 02:01:08;;;;;;;4.25;1.95;;;3.90;99.90;;;;;;5071696;28;20024;-69
2022/02/20 02:03:37;;;;;;;4.68;1.90;;;3.90;99.90;;;;;;5076842;28;20028;-70
2022/02/20 02:06:04;;;;;;;3.15;1.98;;;3.90;99.90;;;;;;5068838;28;20028;-71
2022/02/20 02:08:29;;;;;;;3.85;1.90;;;3.90;99.90;;;;;;5074439;28;20104;-70
2022/02/20 02:10:55;;;;;;;4.53;2.70;;;3.90;99.90;;;;;;5068410;28;20441;-70
2022/02/20 02:13:21;;;;;;;5.13;2.45;;;3.90;99.90;;;;;;5073471;28;20047;-69
2022/02/20 02:15:55;;;;;;;3.67;2.15;;;3.80;99.90;;;;;;5071447;28;20029;-70
2022/02/20 02:18:21;;;;;;;4.45;2.42;;;3.90;99.90;;;;;;5075480;28;20063;-71
2022/02/20 02:20:47;;;;;;;4.20;1.98;;;3.90;99.90;;;;;;5072357;28;20032;-70
2022/02/20 02:23:18;;;;;;;4.40;2.33;;;3.90;99.90;;;;;;5076137;28;20536;-70
2022/02/20 02:25:44;;;;;;;;;;;3.90;99.90;;;;;;5072041;28;20028;-69
2022/02/20 02:28:10;;;;;;;3.55;2.05;;;3.90;99.90;;;;;;5076524;28;19913;-70
2022/02/20 02:30:36;;;;;;;4.90;2.50;;;3.90;99.90;;;;;;5074787;28;20059;-69
2022/02/20 02:33:02;;;;;;;4.85;2.05;;;3.90;99.90;;;;;;5075045;28;20425;-71
2022/02/20 02:35:28;;;;;;;2.67;2.25;;;3.90;99.90;;;;;;5057707;28;20021;-71
2022/02/20 02:37:54;;;;;;;3.78;2.85;;;3.90;99.90;;;;;;5057082;28;20471;-70
2022/02/20 02:40:21;;;;;;;4.93;2.60;;;3.80;99.90;;;;;;5075564;28;20033;-69
2022/02/20 02:42:47;;;;;;;4.05;2.50;;;3.90;99.90;;;;;;5070608;28;20059;-69
2022/02/20 02:45:13;;;;;;;5.25;2.97;;;3.90;99.90;;;;;;5076032;28;20043;-70
2022/02/20 02:47:39;;;;;;;5.22;2.95;;;3.90;99.90;;;;;;5070475;28;20028;-69
2022/02/20 02:50:05;;;;;;;3.88;2.70;;;3.90;99.90;;;;;;5077286;28;20304;-72
2022/02/20 02:52:30;;;;;;;3.65;2.88;;;3.90;99.90;;;;;;5081790;28;20147;-70
2022/02/20 02:54:56;;;;;;;4.13;3.17;;;3.80;99.90;;;;;;5076526;28;20577;-71
2022/02/20 02:57:22;;;;;;;5.00;3.40;;;3.80;99.90;;;;;;5072257;28;20394;-71
2022/02/20 02:59:48;;;;;;;6.03;3.85;;;3.80;99.90;;;;;;5074925;28;20024;-69
2022/02/20 03:02:13;;;;;;;6.32;3.75;;;3.70;99.90;;;;;;5070897;28;20033;-68
2022/02/20 03:04:39;;;;;;;7.38;4.47;;;3.80;99.90;;;;;;5073302;28;20510;-69
2022/02/20 03:07:05;;;;;;;6.28;4.40;;;3.80;99.90;;;;;;5072777;28;20078;-70
2022/02/20 03:09:30;;;;;;;6.15;4.15;;;3.80;99.90;;;;;;5074632;28;20073;-69
2022/02/20 03:11:56;;;;;;;6.38;4.20;;;3.90;99.90;;;;;;5072253;28;20031;-70
2022/02/20 03:14:22;;;;;;;7.07;5.00;;;3.80;99.90;;;;;;5073069;28;20056;-68
2022/02/20 03:16:47;;;;;;;7.80;5.53;;;3.90;99.90;;;;;;5073965;28;20587;-69
2022/02/20 03:19:13;;;;;;;7.93;4.93;;;3.80;99.90;;;;;;5070798;28;20482;-70
2022/02/20 03:21:39;;;;;;;7.93;5.40;;;3.90;99.90;;;;;;5072226;28;20035;-68
2022/02/20 03:24:05;;;;;;;9.80;5.80;;;3.80;99.90;;;;;;5072382;28;20033;-69
2022/02/20 03:26:31;;;;;;;8.15;5.88;;;3.90;99.90;;;;;;5072742;28;20029;-69
2022/02/20 03:28:57;;;;;;;8.18;5.50;;;3.90;99.90;;;;;;5070313;28;20107;-69
2022/02/20 03:31:23;;;;;;;7.60;6.35;;;3.90;99.90;;;;;;5067675;28;20416;-69
2022/02/20 03:33:48;;;;;;;8.88;5.85;;;3.90;99.90;;;;;;5069284;28;20024;-69
2022/02/20 03:36:15;;;;;;;8.40;6.40;;;3.90;99.90;;;;;;5072133;28;20039;-69
2022/02/20 03:38:41;;;;;;;11.07;7.07;;;4.00;99.90;;;;;;5073246;28;20029;-69
2022/02/20 03:41:07;;;;;;;9.77;6.65;;;3.90;99.90;;;;;;5070516;28;20024;-69
2022/02/20 03:43:33;;;;;;;11.43;7.82;;;3.90;99.90;;;;;;5071631;28;20028;-70
2022/02/20 03:45:59;;;;;;;10.80;8.00;;;3.90;99.90;;;;;;5069978;28;20028;-68
2022/02/20 03:48:25;;;;;;;11.65;7.63;;;3.90;99.90;;;;;;5073424;28;20060;-69
2022/02/20 03:50:50;;;;;;;9.40;7.30;;;3.90;99.90;;;;;;5070094;28;20481;-69
2022/02/20 03:53:17;;;;;;;13.63;8.93;;;3.90;99.90;;;;;;5069610;28;20474;-70
2022/02/20 03:55:43;;;;;;;12.25;8.35;;;3.90;99.90;;;;;;5070995;28;20039;-70
2022/02/20 03:58:09;;;;;;;14.85;9.07;;;3.90;99.90;;;;;;5074082;28;20081;-69
2022/02/20 04:00:35;;;;;;;15.70;9.18;;;3.80;99.90;;;;;;5070561;28;20033;-69
2022/02/20 04:03:00;;;;;;;12.98;8.93;;;3.90;99.90;;;;;;5068271;28;20115;-70
2022/02/20 04:05:26;;;;;;;15.35;9.48;;;3.90;99.90;;;;;;5070815;28;20025;-69
2022/02/20 04:07:52;;;;;;;14.45;10.00;;;3.90;99.90;;;;;;5072204;28;20060;-69
2022/02/20 04:10:17;;;;;;;13.80;9.32;;;3.90;99.90;;;;;;5067864;28;20016;-69
2022/02/20 04:12:44;;;;;;;15.10;9.45;;;3.90;99.90;;;;;;5068457;28;20494;-69
2022/02/20 04:15:12;;;;;;;17.38;10.10;;;3.90;99.90;;;;;;5073676;28;20028;-69
2022/02/20 04:17:43;;;;;;;14.07;9.50;;;3.90;99.90;;;;;;5070235;28;20036;-70
2022/02/20 04:20:09;;;;;;;;;;;3.90;99.90;;;;;;5069583;28;20111;-71
2022/02/20 04:22:36;;;;;;;16.35;9.30;;;3.90;99.90;;;;;;5070097;28;19911;-71
2022/02/20 04:25:02;;;;;;;15.30;9.98;;;4.00;99.90;;;;;;5069775;28;20033;-70
2022/02/20 04:27:28;;;;;;;18.73;10.48;;;3.90;99.90;;;;;;5071822;28;20031;-69
2022/02/20 04:29:53;;;;;;;15.63;10.40;;;3.90;99.90;;;;;;5073672;28;20398;-69
2022/02/20 04:32:19;;;;;;;16.13;10.35;;;3.90;99.90;;;;;;5070065;28;20056;-68
2022/02/20 04:34:45;;;;;;;16.50;10.52;;;4.00;99.90;;;;;;5071477;28;20051;-69
2022/02/20 04:37:10;;;;;;;17.67;11.68;;;4.00;99.90;;;;;;5074786;28;20486;-70
2022/02/20 04:39:36;;;;;;;19.65;11.88;;;4.00;99.90;;;;;;5070176;28;20028;-70
2022/02/20 04:42:02;;;;;;;17.45;10.52;;;3.90;99.90;;;;;;5069769;28;20497;-72
2022/02/20 04:44:27;;;;;;;19.60;12.25;;;3.90;99.90;;;;;;5074286;28;20348;-70
2022/02/20 04:46:53;;;;;;;18.33;11.50;;;3.90;99.90;;;;;;5055189;28;20345;-69
2022/02/20 04:49:19;;;;;;;20.02;11.55;;;3.90;99.90;;;;;;5070165;28;20068;-69
2022/02/20 04:51:44;;;;;;;17.90;11.45;;;3.90;99.90;;;;;;5066943;28;20027;-71
2022/02/20 04:54:10;;;;;;;20.05;11.55;;;3.90;99.90;;;;;;5070747;28;20040;-70
2022/02/20 04:56:36;;;;;;;17.52;11.55;;;4.00;99.90;;;;;;5069369;28;20086;-73
2022/02/20 04:59:01;;;;;;;21.45;12.13;;;4.00;99.90;;;;;;5075218;28;20239;-68
2022/02/20 05:01:27;;;;;;;23.00;13.05;;;4.00;99.90;;;;;;5072460;28;20033;-69
2022/02/20 05:03:53;;;;;;;21.52;10.77;;;4.00;99.90;;;;;;5070984;28;20489;-69
2022/02/20 05:06:19;;;;;;;17.98;11.23;;;4.10;99.90;;;;;;5073854;28;20354;-68
2022/02/20 05:08:45;;;;;;;24.40;13.27;;;4.00;99.90;;;;;;5076712;28;20126;-69
2022/02/20 05:11:11;;;;;;;20.23;11.55;;;4.10;99.90;;;;;;5072437;28;20037;-69
2022/02/20 05:13:37;;;;;;;20.25;11.45;;;4.00;99.90;;;;;;5072620;28;20028;-70
2022/02/20 05:16:03;;;;;;;18.25;11.20;;;4.10;99.90;;;;;;5075071;28;20044;-70
2022/02/20 05:18:29;;;;;;;17.63;11.10;;;4.10;99.90;;;;;;5073402;28;20035;-69
2022/02/20 05:20:54;;;;;;;17.67;10.82;;;4.10;99.90;;;;;;5071861;28;20400;-68
2022/02/20 05:23:21;;;;;;;17.40;10.57;;;4.10;99.90;;;;;;5073457;28;20028;-71
2022/02/20 05:25:48;;;;;;;16.70;9.75;;;4.10;99.90;;;;;;5075296;28;20032;-70
2022/02/20 05:28:14;;;;;;;18.48;10.20;;;4.10;99.90;;;;;;5073108;28;20024;-69
2022/02/20 05:30:39;;;;;;;14.68;9.50;;;4.10;99.90;;;;;;5088083;28;20921;-72
2022/02/20 05:33:05;;;;;;;15.60;9.63;;;4.10;99.90;;;;;;5079269;28;20528;-68
2022/02/20 05:35:31;;;;;;;17.10;10.60;;;4.10;99.90;;;;;;5071533;28;20028;-68
2022/02/20 05:37:57;;;;;;;15.10;9.15;;;4.20;99.90;;;;;;5072811;28;20357;-70
2022/02/20 05:40:23;;;;;;;16.08;8.82;;;4.10;99.90;;;;;;5077663;28;20492;-68
2022/02/20 05:42:50;;;;;;;14.07;8.23;;;4.10;99.90;;;;;;5072704;28;20044;-68
2022/02/20 05:45:15;;;;;;;13.45;8.73;;;4.10;99.90;;;;;;5071596;28;20029;-68
2022/02/20 05:47:42;;;;;;;12.73;7.80;;;4.10;99.90;;;;;;5073615;28;20032;-69
2022/02/20 05:50:10;;;;;;;13.25;7.68;;;4.10;99.90;;;;;;5073037;28;20417;-72
2022/02/20 05:52:35;;;;;;;14.55;8.55;;;4.10;99.90;;;;;;5071067;28;20039;-72
2022/02/20 05:55:02;;;;;;;13.95;8.48;;;4.20;99.90;;;;;;5076459;28;20021;-70
2022/02/20 05:57:27;;;;;;;15.23;7.55;;;4.10;99.90;;;;;;5075307;28;20028;-69
2022/02/20 05:59:53;;;;;;;12.18;7.05;;;4.10;99.90;;;;;;5070225;28;20485;-69
2022/02/20 06:02:19;;;;;;;14.88;7.97;;;4.10;99.90;;;;;;5070869;28;20123;-70
2022/02/20 06:04:44;;;;;;;13.98;7.72;;;4.10;99.90;;;;;;5069849;28;20028;-70
2022/02/20 06:07:10;;;;;;;14.90;8.38;;;4.10;99.90;;;;;;5071495;28;20052;-69
2022/02/20 06:09:36;;;;;;;15.18;8.43;;;4.10;99.90;;;;;;5073319;28;20218;-68
2022/02/20 06:12:02;;;;;;;15.38;8.98;;;4.10;99.90;;;;;;5071223;28;20137;-70
2022/02/20 06:14:28;;;;;;;14.57;9.18;;;4.10;99.90;;;;;;5074280;28;20028;-70
2022/02/20 06:16:54;;;;;;;16.23;9.38;;;4.00;99.90;;;;;;5071539;28;20505;-68
2022/02/20 06:19:19;;;;;;;17.40;10.13;;;4.10;99.90;;;;;;5074012;28;20387;-69
2022/02/20 06:21:45;;;;;;;19.95;11.02;;;4.00;99.90;;;;;;5070392;28;20415;-69
2022/02/20 06:24:11;;;;;;;17.92;11.07;;;4.00;99.90;;;;;;5079850;28;20126;-69
2022/02/20 06:26:36;;;;;;;18.27;11.10;;;4.10;99.90;;;;;;5080462;28;20033;-69
2022/02/20 06:29:02;;;;;;;20.65;11.57;;;4.10;99.90;;;;;;5067861;28;20025;-70
2022/02/20 06:31:28;;;;;;;19.55;10.98;;;4.10;99.90;;;;;;5073667;28;20580;-68
2022/02/20 06:33:53;;;;;;;20.15;11.35;;;4.00;99.90;;;;;;5072531;28;20020;-69
2022/02/20 06:36:20;;;;;;;19.25;11.32;;;4.10;99.90;;;;;;5064169;28;20032;-69
2022/02/20 06:38:46;;;;;;;19.58;10.75;;;4.10;99.90;;;;;;5073719;28;20036;-70
2022/02/20 06:41:12;;;;;;;20.08;11.13;;;4.00;99.90;;;;;;5078298;28;20036;-69
2022/02/20 06:43:38;;;;;;;18.85;10.93;;;4.00;99.90;;;;;;5079450;28;20032;-68
2022/02/20 06:46:04;;;;;;;21.50;11.57;;;4.00;99.90;;;;;;5072225;28;20027;-69
2022/02/20 06:48:30;;;;;;;21.40;11.45;;;4.00;99.90;;;;;;5076618;28;20024;-69
2022/02/20 06:50:56;;;;;;;17.17;9.68;;;4.00;99.90;;;;;;5072162;28;20085;-72
2022/02/20 06:53:22;;;;;;;17.65;10.00;;;4.00;99.90;;;;;;5053574;28;20372;-71
2022/02/20 06:55:47;;;;;;;16.85;9.50;;;4.00;99.90;;;;;;5075252;28;20024;-70
2022/02/20 06:58:13;;;;;;;18.70;9.32;;;4.00;99.90;;;;;;5073979;28;20064;-70
2022/02/20 07:00:39;;;;;;;13.50;8.02;;;4.00;99.90;;;;;;5073847;28;20054;-71
2022/02/20 07:03:04;;;;;;;15.27;8.18;;;4.00;99.90;;;;;;5058411;28;20029;-70
2022/02/20 07:05:30;;;;;;;13.77;7.85;;;4.00;99.90;;;;;;5069412;28;20499;-70
2022/02/20 07:07:57;;;;;;;15.80;7.75;;;4.00;99.90;;;;;;5070892;28;20037;-69
2022/02/20 07:10:23;;;;;;;12.00;7.18;;;4.00;99.90;;;;;;5059051;28;20067;-69
2022/02/20 07:12:49;;;;;;;16.60;7.55;;;4.00;99.90;;;;;;5067988;28;20052;-70
2022/02/20 07:15:15;;;;;;;11.52;6.28;;;4.00;99.90;;;;;;5070486;28;20439;-68
2022/02/20 07:17:41;;;;;;;12.13;6.38;;;4.00;99.90;;;;;;5061962;28;20619;-74
2022/02/20 07:20:07;;;;;;;9.90;5.45;;;4.00;99.90;;;;;;5064894;28;20111;-68
2022/02/20 07:22:33;;;;;;;11.35;5.63;;;4.00;99.90;;;;;;5060422;28;20017;-68
2022/02/20 07:25:00;;;;;;;10.43;5.22;;;4.00;99.90;;;;;;5068211;28;20029;-70
2022/02/20 07:27:26;;;;;;;10.05;5.68;;;4.00;99.90;;;;;;5065767;28;20104;-69
2022/02/20 07:29:52;;;;;;;12.43;6.20;;;4.00;99.90;;;;;;5067242;28;20103;-69
2022/02/20 07:32:17;;;;;;;10.88;5.53;;;4.00;99.90;;;;;;5061915;28;20036;-69
2022/02/20 07:34:43;;;;;;;10.02;5.97;;;4.00;99.90;;;;;;5065009;28;20391;-70
2022/02/20 07:37:09;;;;;;;9.93;5.50;;;4.00;99.90;;;;;;5069701;28;20028;-69
2022/02/20 07:39:35;;;;;;;12.55;5.72;;;4.00;99.90;;;;;;5060076;28;20029;-68
2022/02/20 07:42:00;;;;;;;10.02;5.22;;;4.00;99.90;;;;;;5073579;28;20486;-69
2022/02/20 07:44:26;;;;;;;8.15;5.40;;;4.00;99.90;;;;;;5069224;28;20043;-69
2022/02/20 07:46:52;;;;;;;12.02;6.68;;;4.00;99.90;;;;;;5070167;28;20024;-69
2022/02/20 07:49:18;;;;;;;11.55;7.22;;;4.00;99.90;;;;;;5064270;28;20746;-71
2022/02/20 07:51:43;;;;;;;14.57;7.15;;;4.10;99.90;;;;;;5043521;28;20506;-69
2022/02/20 07:54:10;;;;;;;11.05;6.75;;;4.10;99.90;;;;;;5061712;28;20031;-69
2022/02/20 07:56:36;;;;;;;13.27;7.47;;;4.00;99.90;;;;;;5060150;28;20574;-69
2022/02/20 07:59:02;;;;;;;10.63;6.40;;;4.10;99.90;;;;;;5058964;28;20055;-70
2022/02/20 08:01:31;;;;;;;13.98;7.38;;;4.10;99.90;;;;;;5061053;28;20082;-70
2022/02/20 08:03:57;;;;;;;11.80;6.90;;;4.20;99.90;;;;;;5056978;28;20128;-73
2022/02/20 08:06:24;;;;;;;11.48;7.20;;;4.20;99.90;;;;;;5071070;28;20024;-73
2022/02/20 08:08:50;;;;;;;13.00;6.35;;;4.10;99.90;;;;;;5065206;28;20016;-72
2022/02/20 08:11:17;;;;;;;10.00;5.90;;;4.10;99.90;;;;;;5068637;28;20375;-70
2022/02/20 08:13:44;;;;;;;11.20;6.10;;;4.10;99.90;;;;;;5070176;28;20444;-70
2022/02/20 08:16:10;;;;;;;9.00;5.80;;;4.10;99.90;;;;;;5065286;28;20494;-70
2022/02/20 08:18:35;;;;;;;8.40;5.53;;;4.00;99.90;;;;;;5092120;28;20047;-71
2022/02/20 08:21:02;;;;;;;9.20;5.85;;;4.00;99.90;;;;;;5065762;28;20016;-70
2022/02/20 08:23:28;;;;;;;7.80;5.10;;;4.00;99.90;;;;;;5064212;28;20075;-69
2022/02/20 08:25:53;;;;;;;10.55;5.97;;;4.10;99.90;;;;;;5070824;28;20049;-70
2022/02/20 08:28:19;;;;;;;8.38;5.22;;;4.10;99.90;;;;;;5066783;28;20024;-71
2022/02/20 08:30:45;;;;;;;8.40;5.32;;;4.00;99.90;;;;;;5069852;28;21022;-70
2022/02/20 08:33:10;;;;;;;9.10;5.90;;;4.00;99.90;;;;;;5070322;28;20048;-70
2022/02/20 08:35:36;;;;;;;9.90;5.88;;;4.00;99.90;;;;;;5076842;28;20476;-71
2022/02/20 08:38:04;;;;;;;10.43;6.18;;;4.00;99.90;;;;;;5072952;28;20424;-72
2022/02/20 08:40:30;;;;;;;9.80;5.80;;;4.00;99.90;;;;;;5065927;28;20032;-70
2022/02/20 08:42:57;;;;;;;8.90;5.40;;;4.10;99.90;;;;;;5069323;28;20049;-75
2022/02/20 08:45:24;;;;;;;10.55;5.93;;;4.00;99.90;;;;;;5077952;28;20103;-72
2022/02/20 08:47:50;;;;;;;10.18;6.70;;;4.00;99.90;;;;;;5064436;28;20503;-71
2022/02/20 08:50:16;;;;;;;11.98;6.40;;;4.00;99.90;;;;;;5055865;28;20024;-71
2022/02/20 08:52:45;;;;;;;11.90;6.50;;;3.90;99.90;;;;;;5071613;28;20086;-72
2022/02/20 08:55:12;;;;;;;11.27;6.10;;;3.90;99.90;;;;;;5050292;28;20040;-71
2022/02/20 08:57:38;;;;;;;9.75;6.28;;;4.00;99.90;;;;;;5057032;28;20058;-70
2022/02/20 09:00:07;;;;;;;10.48;6.90;;;4.10;99.90;;;;;;5062002;28;20494;-72
2022/02/20 09:02:32;;;;;;;10.13;6.47;;;4.10;99.90;;;;;;5064864;28;20081;-71
2022/02/20 09:04:58;;;;;;;9.65;6.30;;;4.10;99.90;;;;;;5051554;28;20025;-70
2022/02/20 09:07:24;;;;;;;10.00;6.03;;;4.20;99.90;;;;;;5066336;28;20119;-70
2022/02/20 09:09:49;;;;;;;7.60;4.90;;;4.10;99.90;;;;;;5056399;28;20025;-70
2022/02/20 09:12:15;;;;;;;9.63;6.38;;;4.00;99.90;;;;;;5062457;28;20060;-70
2022/02/20 09:14:41;;;;;;;8.52;5.57;;;3.90;99.90;;;;;;5057786;28;20027;-72
2022/02/20 09:17:10;;;;;;;9.27;6.13;;;3.90;99.90;;;;;;5043687;28;20479;-72
2022/02/20 09:19:36;;;;;;;10.45;6.00;;;4.00;99.90;;;;;;5061304;28;20051;-72
2022/02/20 09:22:02;;;;;;;8.23;5.43;;;4.00;99.90;;;;;;5067502;28;20032;-70
2022/02/20 09:24:28;;;;;;;10.60;5.78;;;4.10;99.90;;;;;;5066116;28;20040;-70
2022/02/20 09:26:54;;;;;;;11.07;5.97;;;4.00;99.90;;;;;;5062550;28;20505;-70
2022/02/20 09:29:20;;;;;;;10.07;6.43;;;3.90;99.90;;;;;;5063198;28;20039;-69
2022/02/20 09:31:45;;;;;;;10.88;6.13;;;3.90;99.90;;;;;;5057638;28;20024;-72
2022/02/20 09:34:11;;;;;;;9.75;6.05;;;3.90;99.90;;;;;;5061950;28;20033;-74
2022/02/20 09:36:37;;;;;;;8.95;5.80;;;3.80;99.90;;;;;;5064793;28;20032;-71
2022/02/20 09:39:04;;;;;;;11.32;6.63;;;3.90;99.90;;;;;;5080757;28;20474;-70
2022/02/20 09:41:37;;;;;;;10.10;5.82;;;3.80;99.90;;;;;;5062535;28;20051;-71
2022/02/20 09:44:04;;;;;;;8.88;5.57;;;3.90;99.90;;;;;;5064040;28;20055;-72
2022/02/20 09:46:29;;;;;;;10.07;6.03;;;4.00;99.90;;;;;;5060642;28;20049;-73
2022/02/20 09:48:58;;;;;;;108.22;55.97;;;3.90;99.90;;;;;;5068459;28;20025;-71
2022/02/20 09:51:24;;;;;;;42.42;19.05;;;3.90;99.90;;;;;;5073707;28;20486;-71
2022/02/20 09:53:51;;;;;;;16.33;8.30;;;4.00;99.90;;;;;;5069586;28;20044;-71
2022/02/20 09:56:17;;;;;;;37.78;18.50;;;3.90;99.90;;;;;;5067916;28;20029;-70
2022/02/20 09:58:43;;;;;;;13.75;8.52;;;3.80;99.90;;;;;;5067010;28;20032;-71
2022/02/20 10:01:13;;;;;;;10.00;5.90;;;3.90;99.90;;;;;;5060686;28;20028;-70
2022/02/20 10:03:47;;;;;;;9.50;5.72;;;3.80;99.90;;;;;;5064812;28;20024;-70
2022/02/20 10:06:21;;;;;;;8.00;5.18;;;3.80;99.90;;;;;;5073142;28;20093;-69
2022/02/20 10:08:48;;;;;;;9.70;5.85;;;3.80;99.90;;;;;;5073921;28;20025;-69
2022/02/20 10:11:19;;;;;;;9.18;5.03;;;3.70;99.90;;;;;;5072072;28;20036;-71
2022/02/20 10:13:50;;;;;;;7.82;4.95;;;3.80;99.90;;;;;;5072981;28;20111;-71
2022/02/20 10:16:30;;;;;;;8.05;4.72;;;3.80;99.90;;;;;;5070239;28;20116;-70
2022/02/20 10:18:58;;;;;;;8.88;5.07;;;3.70;99.90;;;;;;5066377;28;20024;-70
2022/02/20 10:21:29;;;;;;;7.53;4.40;;;3.70;99.90;;;;;;5074434;28;20115;-70
2022/02/20 10:24:10;;;;;;;7.47;4.28;;;3.60;99.90;;;;;;5070835;28;20036;-69
2022/02/20 10:26:47;;;;;;;7.43;4.50;;;3.50;99.90;;;;;;5075615;28;20719;-70
2022/02/20 10:29:18;;;;;;;8.95;5.25;;;3.50;99.90;;;;;;5074396;28;20031;-72
2022/02/20 10:31:55;;;;;;;9.10;4.97;;;3.50;99.90;;;;;;5073227;28;20362;-70
2022/02/20 10:34:26;;;;;;;10.13;5.60;;;3.50;99.90;;;;;;5071014;28;20040;-69
2022/02/20 10:36:59;;;;;;;9.45;5.05;;;3.50;99.90;;;;;;5072379;28;20031;-71
2022/02/20 10:39:31;;;;;;;9.43;5.40;;;3.60;99.90;;;;;;5069193;28;20158;-69
2022/02/20 10:41:59;;;;;;;8.85;5.20;;;3.60;99.90;;;;;;5069044;28;20032;-73
2022/02/20 10:44:26;;;;;;;8.30;4.80;;;3.60;99.90;;;;;;5069746;28;20062;-70
2022/02/20 10:47:13;;;;;;;7.07;4.43;;;3.70;99.90;;;;;;5067418;28;20077;-69
2022/02/20 10:49:39;;;;;;;7.82;4.80;;;3.60;99.90;;;;;;5069439;28;20037;-71
2022/02/20 10:52:05;;;;;;;7.30;4.68;;;3.60;99.90;;;;;;5066966;28;20047;-73
2022/02/20 10:54:31;;;;;;;7.75;4.07;;;3.60;99.90;;;;;;5075345;28;20028;-69
2022/02/20 10:56:56;;;;;;;6.45;4.60;;;3.70;99.90;;;;;;5073959;28;20036;-70
2022/02/20 10:59:23;;;;;;;8.27;4.75;;;3.70;99.90;;;;;;5072802;28;20508;-71
2022/02/20 11:01:50;;;;;;;12.13;5.22;;;3.70;99.90;;;;;;5071658;28;20032;-72
2022/02/20 11:04:16;;;;;;;7.22;4.80;;;3.70;99.90;;;;;;5073943;28;20036;-69
2022/02/20 11:06:44;;;;;;;8.07;4.78;;;3.70;99.90;;;;;;5074351;28;20027;-71
2022/02/20 11:09:10;;;;;;;9.25;4.97;;;3.80;99.90;;;;;;5064148;28;20059;-70
2022/02/20 11:11:40;;;;;;;7.65;4.85;;;3.80;99.90;;;;;;5072298;28;20031;-71
2022/02/20 11:14:18;;;;;;;10.45;5.32;;;3.90;99.90;;;;;;5072221;28;20035;-70
2022/02/20 11:16:45;;;;;;;8.73;5.18;;;3.80;99.90;;;;;;5066103;28;20146;-70
2022/02/20 11:19:15;;;;;;;8.55;5.32;;;3.90;99.90;;;;;;5074206;28;20165;-70
2022/02/20 11:21:44;;;;;;;7.78;4.70;;;3.90;99.90;;;;;;5072142;28;20064;-70
2022/02/20 11:24:11;;;;;;;10.20;5.90;;;4.00;99.90;;;;;;5068743;28;20049;-70
2022/02/20 11:26:40;;;;;;;11.93;5.72;;;4.00;99.90;;;;;;5064297;28;20553;-72
2022/02/20 11:29:06;;;;;;;15.05;6.72;;;4.00;99.90;;;;;;5049619;28;20431;-70
2022/02/20 11:31:32;;;;;;;11.68;6.68;;;4.10;99.90;;;;;;5066339;28;20055;-71
2022/02/20 11:34:01;;;;;;;11.40;5.93;;;4.10;99.90;;;;;;5068570;28;20052;-71
2022/02/20 11:36:29;;;;;;;10.43;6.35;;;4.20;99.90;;;;;;5078148;28;20474;-74
2022/02/20 11:39:08;;;;;;;15.75;6.90;;;4.20;99.90;;;;;;5067780;28;20575;-71
2022/02/20 11:41:35;;;;;;;9.65;6.13;;;4.30;99.90;;;;;;5069957;28;20033;-71
2022/02/20 11:44:18;;;;;;;13.52;7.03;;;4.30;99.90;;;;;;5076020;28;20242;-71
2022/02/20 11:46:52;;;;;;;12.70;6.70;;;4.40;99.90;;;;;;5072565;28;20033;-72
2022/02/20 11:49:28;;;;;;;12.55;7.38;;;4.40;99.90;;;;;;5064378;28;20028;-71
2022/02/20 11:52:03;;;;;;;10.65;6.82;;;4.60;99.90;;;;;;5063240;28;20064;-71
2022/02/20 11:54:31;;;;;;;11.63;7.43;;;4.70;99.90;;;;;;5067136;28;20512;-71
2022/02/20 11:57:12;;;;;;;18.88;10.20;;;4.80;99.90;;;;;;5066660;28;20024;-72
2022/02/20 11:59:39;;;;;;;20.65;9.68;;;4.90;99.90;;;;;;5073346;28;20335;-73
2022/02/20 12:02:14;;;;;;;23.33;11.40;;;5.00;99.90;;;;;;5063147;28;20086;-72
2022/02/20 12:04:55;;;;;;;24.48;10.88;;;5.20;99.90;;;;;;5066735;28;20443;-72
2022/02/20 12:07:30;;;;;;;18.17;9.88;;;5.30;99.90;;;;;;5067357;28;20028;-71
2022/02/20 12:10:23;;;;;;;22.90;10.98;;;5.40;99.90;;;;;;5063308;28;20060;-69
2022/02/20 12:13:09;;;;;;;19.55;9.77;;;5.40;99.90;;;;;;5070100;28;20025;-70
2022/02/20 12:15:38;;;;;;;18.65;9.80;;;5.50;99.90;;;;;;5072342;28;20070;-70
2022/02/20 12:18:10;;;;;;;19.27;9.65;;;5.60;99.90;;;;;;5079959;28;20052;-72
2022/02/20 12:20:57;;;;;;;16.95;9.43;;;5.70;99.90;;;;;;5068671;28;20044;-72
2022/02/20 12:23:48;;;;;;;17.35;9.70;;;5.70;99.90;;;;;;5069929;28;20043;-73
2022/02/20 12:26:42;;;;;;;17.02;9.07;;;5.80;99.90;;;;;;5066288;28;20033;-72
2022/02/20 12:29:16;;;;;;;14.45;8.45;;;5.90;99.90;;;;;;5076650;28;20028;-72
2022/02/20 12:32:00;;;;;;;13.05;8.23;;;6.00;99.90;;;;;;5061417;28;20032;-71
2022/02/20 12:34:46;;;;;;;13.45;8.68;;;6.00;99.90;;;;;;5070208;28;20036;-72
2022/02/20 12:37:15;;;;;;;16.60;8.50;;;6.10;99.90;;;;;;5076006;28;20093;-71
2022/02/20 12:39:41;;;;;;;17.38;9.52;;;6.10;99.90;;;;;;5074519;28;20020;-72
2022/02/20 12:42:07;;;;;;;15.05;8.50;;;6.20;99.90;;;;;;5067926;28;20104;-71
2022/02/20 12:44:33;;;;;;;15.23;8.48;;;6.30;99.90;;;;;;5065252;28;20127;-70
2022/02/20 12:47:02;;;;;;;16.33;8.63;;;6.30;99.90;;;;;;5064162;28;20071;-71
2022/02/20 12:49:29;;;;;;;15.98;8.73;;;6.30;99.90;;;;;;5074309;28;20020;-72
2022/02/20 12:52:03;;;;;;;14.95;8.88;;;6.40;99.90;;;;;;5068743;28;20044;-71